sensor_id;sensor_type;location;lat;lon;timestamp;P1;durP1;ratioP1;P2;durP2;ratioP2
572;SDS011;271;51.114;13.780;2024-03-07T00:02:07;47.67;;;23.15;;
572;SDS011;271;51.114;13.780;2024-03-07T00:04:54;48.97;;;23.52;;
572;SDS011;271;51.114;13.780;2024-03-07T00:07:42;44.05;;;23.08;;
572;SDS011;271;51.114;13.780;2024-03-07T00:10:30;47.22;;;22.23;;
572;SDS011;271;51.114;13.780;2024-03-07T00:13:17;53.78;;;24.70;;
572;SDS011;271;51.114;13.780;2024-03-07T00:16:05;48.28;;;23.77;;
572;SDS011;271;51.114;13.780;2024-03-07T00:18:56;53.08;;;25.17;;
572;SDS011;271;51.114;13.780;2024-03-07T00:21:43;50.72;;;22.85;;
572;SDS011;271;51.114;13.780;2024-03-07T00:24:31;46.60;;;24.25;;
572;SDS011;271;51.114;13.780;2024-03-07T00:27:19;52.70;;;25.83;;
572;SDS011;271;51.114;13.780;2024-03-07T00:30:07;49.88;;;23.73;;
572;SDS011;271;51.114;13.780;2024-03-07T00:32:55;52.42;;;24.48;;
572;SDS011;271;51.114;13.780;2024-03-07T00:35:45;52.65;;;25.10;;
572;SDS011;271;51.114;13.780;2024-03-07T00:38:33;51.53;;;26.40;;
572;SDS011;271;51.114;13.780;2024-03-07T00:41:20;52.97;;;26.33;;
572;SDS011;271;51.114;13.780;2024-03-07T00:44:08;52.58;;;26.08;;
572;SDS011;271;51.114;13.780;2024-03-07T00:46:56;47.63;;;23.90;;
572;SDS011;271;51.114;13.780;2024-03-07T00:49:43;54.13;;;28.35;;
572;SDS011;271;51.114;13.780;2024-03-07T00:52:33;49.80;;;24.42;;
572;SDS011;271;51.114;13.780;2024-03-07T00:55:21;55.63;;;24.48;;
572;SDS011;271;51.114;13.780;2024-03-07T00:58:09;54.20;;;24.27;;
572;SDS011;271;51.114;13.780;2024-03-07T01:00:58;50.88;;;25.10;;
572;SDS011;271;51.114;13.780;2024-03-07T01:03:46;53.75;;;24.45;;
572;SDS011;271;51.114;13.780;2024-03-07T01:06:34;49.50;;;24.63;;
572;SDS011;271;51.114;13.780;2024-03-07T01:09:24;52.13;;;24.85;;
572;SDS011;271;51.114;13.780;2024-03-07T01:12:14;53.75;;;24.45;;
572;SDS011;271;51.114;13.780;2024-03-07T01:15:02;50.88;;;24.95;;
572;SDS011;271;51.114;13.780;2024-03-07T01:17:51;57.03;;;25.65;;
572;SDS011;271;51.114;13.780;2024-03-07T01:20:39;52.67;;;26.05;;
572;SDS011;271;51.114;13.780;2024-03-07T01:23:26;55.38;;;24.58;;
572;SDS011;271;51.114;13.780;2024-03-07T01:26:16;53.55;;;25.67;;
572;SDS011;271;51.114;13.780;2024-03-07T01:29:04;50.17;;;25.92;;
572;SDS011;271;51.114;13.780;2024-03-07T01:31:52;49.53;;;23.90;;
572;SDS011;271;51.114;13.780;2024-03-07T01:34:40;49.60;;;24.15;;
572;SDS011;271;51.114;13.780;2024-03-07T01:37:28;56.05;;;25.13;;
572;SDS011;271;51.114;13.780;2024-03-07T01:40:15;46.42;;;21.13;;
572;SDS011;271;51.114;13.780;2024-03-07T01:43:04;47.88;;;24.17;;
572;SDS011;271;51.114;13.780;2024-03-07T01:45:53;48.15;;;23.88;;
572;SDS011;271;51.114;13.780;2024-03-07T01:48:44;52.10;;;24.77;;
572;SDS011;271;51.114;13.780;2024-03-07T01:51:32;46.58;;;24.60;;
572;SDS011;271;51.114;13.780;2024-03-07T01:54:20;50.35;;;24.58;;
572;SDS011;271;51.114;13.780;2024-03-07T01:57:08;48.03;;;24.80;;
572;SDS011;271;51.114;13.780;2024-03-07T01:59:57;56.13;;;24.15;;
572;SDS011;271;51.114;13.780;2024-03-07T02:02:49;53.13;;;26.60;;
572;SDS011;271;51.114;13.780;2024-03-07T02:05:37;56.00;;;27.98;;
572;SDS011;271;51.114;13.780;2024-03-07T02:08:25;50.97;;;25.05;;
572;SDS011;271;51.114;13.780;2024-03-07T02:11:13;54.90;;;26.92;;
572;SDS011;271;51.114;13.780;2024-03-07T02:14:00;49.05;;;24.08;;
572;SDS011;271;51.114;13.780;2024-03-07T02:16:49;47.90;;;25.17;;
572;SDS011;271;51.114;13.780;2024-03-07T02:19:37;50.72;;;24.73;;
572;SDS011;271;51.114;13.780;2024-03-07T02:22:26;51.45;;;25.05;;
572;SDS011;271;51.114;13.780;2024-03-07T02:25:14;49.25;;;24.27;;
572;SDS011;271;51.114;13.780;2024-03-07T02:28:01;49.85;;;25.67;;
572;SDS011;271;51.114;13.780;2024-03-07T02:30:50;51.97;;;26.02;;
572;SDS011;271;51.114;13.780;2024-03-07T02:33:38;50.78;;;25.58;;
572;SDS011;271;51.114;13.780;2024-03-07T02:36:26;47.92;;;24.40;;
572;SDS011;271;51.114;13.780;2024-03-07T02:39:15;50.92;;;25.13;;
572;SDS011;271;51.114;13.780;2024-03-07T02:42:03;51.88;;;25.58;;
572;SDS011;271;51.114;13.780;2024-03-07T02:44:51;56.10;;;27.63;;
572;SDS011;271;51.114;13.780;2024-03-07T02:47:39;58.63;;;26.50;;
572;SDS011;271;51.114;13.780;2024-03-07T02:50:27;59.15;;;30.35;;
572;SDS011;271;51.114;13.780;2024-03-07T02:53:15;55.17;;;27.67;;
572;SDS011;271;51.114;13.780;2024-03-07T02:56:06;56.22;;;27.00;;
572;SDS011;271;51.114;13.780;2024-03-07T02:58:55;54.15;;;26.80;;
572;SDS011;271;51.114;13.780;2024-03-07T03:01:42;53.33;;;26.55;;
572;SDS011;271;51.114;13.780;2024-03-07T03:04:30;56.38;;;25.52;;
572;SDS011;271;51.114;13.780;2024-03-07T03:07:18;54.10;;;28.15;;
572;SDS011;271;51.114;13.780;2024-03-07T03:10:07;56.03;;;27.95;;
572;SDS011;271;51.114;13.780;2024-03-07T03:12:57;50.40;;;25.08;;
572;SDS011;271;51.114;13.780;2024-03-07T03:15:46;52.67;;;26.77;;
572;SDS011;271;51.114;13.780;2024-03-07T03:18:34;53.05;;;26.10;;
572;SDS011;271;51.114;13.780;2024-03-07T03:21:22;47.67;;;23.48;;
572;SDS011;271;51.114;13.780;2024-03-07T03:24:09;51.00;;;24.38;;
572;SDS011;271;51.114;13.780;2024-03-07T03:26:57;52.72;;;25.67;;
572;SDS011;271;51.114;13.780;2024-03-07T03:29:46;54.28;;;26.80;;
572;SDS011;271;51.114;13.780;2024-03-07T03:32:36;54.80;;;26.20;;
572;SDS011;271;51.114;13.780;2024-03-07T03:35:24;51.67;;;26.35;;
572;SDS011;271;51.114;13.780;2024-03-07T03:38:11;53.20;;;28.42;;
572;SDS011;271;51.114;13.780;2024-03-07T03:40:59;51.55;;;24.77;;
572;SDS011;271;51.114;13.780;2024-03-07T03:43:47;56.38;;;27.65;;
572;SDS011;271;51.114;13.780;2024-03-07T03:46:36;51.20;;;27.15;;
572;SDS011;271;51.114;13.780;2024-03-07T03:49:24;58.00;;;29.05;;
572;SDS011;271;51.114;13.780;2024-03-07T03:52:11;48.70;;;25.90;;
572;SDS011;271;51.114;13.780;2024-03-07T03:54:59;51.78;;;25.27;;
572;SDS011;271;51.114;13.780;2024-03-07T03:57:47;54.08;;;27.85;;
572;SDS011;271;51.114;13.780;2024-03-07T04:00:34;48.95;;;27.73;;
572;SDS011;271;51.114;13.780;2024-03-07T04:03:23;51.88;;;28.17;;
572;SDS011;271;51.114;13.780;2024-03-07T04:06:12;54.45;;;29.27;;
572;SDS011;271;51.114;13.780;2024-03-07T04:09:00;53.13;;;27.83;;
572;SDS011;271;51.114;13.780;2024-03-07T04:11:47;55.80;;;29.02;;
572;SDS011;271;51.114;13.780;2024-03-07T04:14:35;53.00;;;27.15;;
572;SDS011;271;51.114;13.780;2024-03-07T04:17:23;52.53;;;29.45;;
572;SDS011;271;51.114;13.780;2024-03-07T04:20:12;54.33;;;27.88;;
572;SDS011;271;51.114;13.780;2024-03-07T04:23:03;49.88;;;25.90;;
572;SDS011;271;51.114;13.780;2024-03-07T04:25:51;55.72;;;30.02;;
572;SDS011;271;51.114;13.780;2024-03-07T04:28:39;58.45;;;31.10;;
572;SDS011;271;51.114;13.780;2024-03-07T04:31:26;55.63;;;29.48;;
572;SDS011;271;51.114;13.780;2024-03-07T04:34:14;52.83;;;27.58;;
572;SDS011;271;51.114;13.780;2024-03-07T04:37:03;52.60;;;28.00;;
572;SDS011;271;51.114;13.780;2024-03-07T04:39:51;51.42;;;26.95;;
572;SDS011;271;51.114;13.780;2024-03-07T04:42:39;55.67;;;30.92;;
572;SDS011;271;51.114;13.780;2024-03-07T04:45:27;49.17;;;26.13;;
572;SDS011;271;51.114;13.780;2024-03-07T04:48:15;48.90;;;27.42;;
572;SDS011;271;51.114;13.780;2024-03-07T04:51:03;57.05;;;27.38;;
572;SDS011;271;51.114;13.780;2024-03-07T04:53:52;48.88;;;24.85;;
572;SDS011;271;51.114;13.780;2024-03-07T04:56:39;51.33;;;27.60;;
572;SDS011;271;51.114;13.780;2024-03-07T04:59:27;52.75;;;27.60;;
572;SDS011;271;51.114;13.780;2024-03-07T05:02:15;51.50;;;26.67;;
572;SDS011;271;51.114;13.780;2024-03-07T05:05:03;52.65;;;27.35;;
572;SDS011;271;51.114;13.780;2024-03-07T05:07:51;46.42;;;26.02;;
572;SDS011;271;51.114;13.780;2024-03-07T05:10:40;53.75;;;27.70;;
572;SDS011;271;51.114;13.780;2024-03-07T05:13:28;47.40;;;26.50;;
572;SDS011;271;51.114;13.780;2024-03-07T05:16:17;51.88;;;26.50;;
572;SDS011;271;51.114;13.780;2024-03-07T05:19:05;47.42;;;24.98;;
572;SDS011;271;51.114;13.780;2024-03-07T05:21:53;54.28;;;28.77;;
572;SDS011;271;51.114;13.780;2024-03-07T05:24:41;48.53;;;26.23;;
572;SDS011;271;51.114;13.780;2024-03-07T05:27:31;48.58;;;25.52;;
572;SDS011;271;51.114;13.780;2024-03-07T05:30:19;46.55;;;25.25;;
572;SDS011;271;51.114;13.780;2024-03-07T05:33:09;48.65;;;25.25;;
572;SDS011;271;51.114;13.780;2024-03-07T05:35:56;50.28;;;27.40;;
572;SDS011;271;51.114;13.780;2024-03-07T05:38:59;54.15;;;24.92;;
572;SDS011;271;51.114;13.780;2024-03-07T05:41:54;51.17;;;25.23;;
572;SDS011;271;51.114;13.780;2024-03-07T05:44:44;55.25;;;27.80;;
572;SDS011;271;51.114;13.780;2024-03-07T05:47:32;49.83;;;27.05;;
572;SDS011;271;51.114;13.780;2024-03-07T05:50:20;48.53;;;24.77;;
572;SDS011;271;51.114;13.780;2024-03-07T05:53:08;51.55;;;28.42;;
572;SDS011;271;51.114;13.780;2024-03-07T05:55:57;47.28;;;23.75;;
572;SDS011;271;51.114;13.780;2024-03-07T05:58:45;53.40;;;27.38;;
572;SDS011;271;51.114;13.780;2024-03-07T06:01:34;50.45;;;28.50;;
572;SDS011;271;51.114;13.780;2024-03-07T06:04:22;52.78;;;26.95;;
572;SDS011;271;51.114;13.780;2024-03-07T06:07:09;49.55;;;26.67;;
572;SDS011;271;51.114;13.780;2024-03-07T06:09:58;46.55;;;24.20;;
572;SDS011;271;51.114;13.780;2024-03-07T06:12:45;50.80;;;26.88;;
572;SDS011;271;51.114;13.780;2024-03-07T06:15:33;51.10;;;26.20;;
572;SDS011;271;51.114;13.780;2024-03-07T06:18:24;47.45;;;24.73;;
572;SDS011;271;51.114;13.780;2024-03-07T06:21:16;50.83;;;25.30;;
572;SDS011;271;51.114;13.780;2024-03-07T06:24:04;43.60;;;22.58;;
572;SDS011;271;51.114;13.780;2024-03-07T06:26:53;45.00;;;23.92;;
572;SDS011;271;51.114;13.780;2024-03-07T06:29:46;49.50;;;24.00;;
572;SDS011;271;51.114;13.780;2024-03-07T06:32:36;43.75;;;22.50;;
572;SDS011;271;51.114;13.780;2024-03-07T06:35:25;46.60;;;24.13;;
572;SDS011;271;51.114;13.780;2024-03-07T06:38:12;43.30;;;23.05;;
572;SDS011;271;51.114;13.780;2024-03-07T06:41:00;46.50;;;24.02;;
572;SDS011;271;51.114;13.780;2024-03-07T06:43:48;45.50;;;22.00;;
572;SDS011;271;51.114;13.780;2024-03-07T06:46:36;48.35;;;23.48;;
572;SDS011;271;51.114;13.780;2024-03-07T06:49:24;44.53;;;22.90;;
572;SDS011;271;51.114;13.780;2024-03-07T06:52:13;43.53;;;22.70;;
572;SDS011;271;51.114;13.780;2024-03-07T06:55:01;41.58;;;21.88;;
572;SDS011;271;51.114;13.780;2024-03-07T06:57:49;39.63;;;19.67;;
572;SDS011;271;51.114;13.780;2024-03-07T07:00:37;42.78;;;19.55;;
572;SDS011;271;51.114;13.780;2024-03-07T07:03:26;38.65;;;19.30;;
572;SDS011;271;51.114;13.780;2024-03-07T07:06:14;42.50;;;20.50;;
572;SDS011;271;51.114;13.780;2024-03-07T07:09:03;37.53;;;20.38;;
572;SDS011;271;51.114;13.780;2024-03-07T07:11:51;37.78;;;17.95;;
572;SDS011;271;51.114;13.780;2024-03-07T07:14:39;38.80;;;19.08;;
572;SDS011;271;51.114;13.780;2024-03-07T07:17:27;35.35;;;18.52;;
572;SDS011;271;51.114;13.780;2024-03-07T07:20:15;36.65;;;18.33;;
572;SDS011;271;51.114;13.780;2024-03-07T07:23:03;35.72;;;18.17;;
572;SDS011;271;51.114;13.780;2024-03-07T07:25:52;33.90;;;16.60;;
572;SDS011;271;51.114;13.780;2024-03-07T07:28:40;32.30;;;15.27;;
572;SDS011;271;51.114;13.780;2024-03-07T07:31:27;32.40;;;16.27;;
572;SDS011;271;51.114;13.780;2024-03-07T07:34:15;34.25;;;17.20;;
572;SDS011;271;51.114;13.780;2024-03-07T07:37:03;34.65;;;16.77;;
572;SDS011;271;51.114;13.780;2024-03-07T07:39:51;35.03;;;17.23;;
572;SDS011;271;51.114;13.780;2024-03-07T07:42:40;34.45;;;17.60;;
572;SDS011;271;51.114;13.780;2024-03-07T07:45:27;31.75;;;16.48;;
572;SDS011;271;51.114;13.780;2024-03-07T07:48:15;35.15;;;18.10;;
572;SDS011;271;51.114;13.780;2024-03-07T07:51:05;37.40;;;17.85;;
572;SDS011;271;51.114;13.780;2024-03-07T07:53:52;37.58;;;16.70;;
572;SDS011;271;51.114;13.780;2024-03-07T07:56:42;38.08;;;16.90;;
572;SDS011;271;51.114;13.780;2024-03-07T07:59:32;32.13;;;15.70;;
572;SDS011;271;51.114;13.780;2024-03-07T08:02:19;35.80;;;16.80;;
572;SDS011;271;51.114;13.780;2024-03-07T08:05:08;32.15;;;15.45;;
572;SDS011;271;51.114;13.780;2024-03-07T08:07:57;33.30;;;15.52;;
572;SDS011;271;51.114;13.780;2024-03-07T08:10:45;32.10;;;14.15;;
572;SDS011;271;51.114;13.780;2024-03-07T08:13:33;31.05;;;14.57;;
572;SDS011;271;51.114;13.780;2024-03-07T08:16:23;33.03;;;16.05;;
572;SDS011;271;51.114;13.780;2024-03-07T08:19:11;31.33;;;14.75;;
572;SDS011;271;51.114;13.780;2024-03-07T08:21:59;33.35;;;14.63;;
572;SDS011;271;51.114;13.780;2024-03-07T08:24:48;31.30;;;14.95;;
572;SDS011;271;51.114;13.780;2024-03-07T08:27:36;31.63;;;13.90;;
572;SDS011;271;51.114;13.780;2024-03-07T08:30:25;29.63;;;13.88;;
572;SDS011;271;51.114;13.780;2024-03-07T08:33:15;32.50;;;13.80;;
572;SDS011;271;51.114;13.780;2024-03-07T08:36:07;28.70;;;13.82;;
572;SDS011;271;51.114;13.780;2024-03-07T08:38:55;29.60;;;13.68;;
572;SDS011;271;51.114;13.780;2024-03-07T08:41:43;28.23;;;14.10;;
572;SDS011;271;51.114;13.780;2024-03-07T08:44:32;30.17;;;13.45;;
572;SDS011;271;51.114;13.780;2024-03-07T08:47:20;27.87;;;13.93;;
572;SDS011;271;51.114;13.780;2024-03-07T08:50:09;27.03;;;13.00;;
572;SDS011;271;51.114;13.780;2024-03-07T08:52:58;25.60;;;12.07;;
572;SDS011;271;51.114;13.780;2024-03-07T08:55:47;27.33;;;11.50;;
572;SDS011;271;51.114;13.780;2024-03-07T08:58:34;27.80;;;11.50;;
572;SDS011;271;51.114;13.780;2024-03-07T09:01:23;26.13;;;11.10;;
572;SDS011;271;51.114;13.780;2024-03-07T09:04:10;26.93;;;10.47;;
572;SDS011;271;51.114;13.780;2024-03-07T09:07:01;27.25;;;11.23;;
572;SDS011;271;51.114;13.780;2024-03-07T09:09:49;26.73;;;10.65;;
572;SDS011;271;51.114;13.780;2024-03-07T09:12:37;27.83;;;11.73;;
572;SDS011;271;51.114;13.780;2024-03-07T09:15:24;30.65;;;11.23;;
572;SDS011;271;51.114;13.780;2024-03-07T09:18:12;28.67;;;11.43;;
572;SDS011;271;51.114;13.780;2024-03-07T09:21:00;26.73;;;11.90;;
572;SDS011;271;51.114;13.780;2024-03-07T09:23:49;25.30;;;10.85;;
572;SDS011;271;51.114;13.780;2024-03-07T09:26:37;27.85;;;12.27;;
572;SDS011;271;51.114;13.780;2024-03-07T09:29:25;28.08;;;11.45;;
572;SDS011;271;51.114;13.780;2024-03-07T09:32:13;28.42;;;13.23;;
572;SDS011;271;51.114;13.780;2024-03-07T09:35:01;29.27;;;13.02;;
572;SDS011;271;51.114;13.780;2024-03-07T09:37:49;26.88;;;12.80;;
572;SDS011;271;51.114;13.780;2024-03-07T09:40:38;27.27;;;12.68;;
572;SDS011;271;51.114;13.780;2024-03-07T09:43:26;26.75;;;12.48;;
572;SDS011;271;51.114;13.780;2024-03-07T09:46:17;29.38;;;13.10;;
572;SDS011;271;51.114;13.780;2024-03-07T09:49:05;30.25;;;14.73;;
572;SDS011;271;51.114;13.780;2024-03-07T09:51:57;30.60;;;13.27;;
572;SDS011;271;51.114;13.780;2024-03-07T09:54:47;29.95;;;15.32;;
572;SDS011;271;51.114;13.780;2024-03-07T09:57:36;32.65;;;15.40;;
572;SDS011;271;51.114;13.780;2024-03-07T10:00:25;30.90;;;14.57;;
572;SDS011;271;51.114;13.780;2024-03-07T10:03:13;27.23;;;13.68;;
572;SDS011;271;51.114;13.780;2024-03-07T10:06:04;32.65;;;13.95;;
572;SDS011;271;51.114;13.780;2024-03-07T10:08:52;30.65;;;14.57;;
572;SDS011;271;51.114;13.780;2024-03-07T10:11:40;26.55;;;13.25;;
572;SDS011;271;51.114;13.780;2024-03-07T10:14:32;28.27;;;12.07;;
572;SDS011;271;51.114;13.780;2024-03-07T10:17:20;29.55;;;12.75;;
572;SDS011;271;51.114;13.780;2024-03-07T10:20:11;26.27;;;11.35;;
572;SDS011;271;51.114;13.780;2024-03-07T10:23:00;29.27;;;11.90;;
572;SDS011;271;51.114;13.780;2024-03-07T10:25:48;27.38;;;10.77;;
572;SDS011;271;51.114;13.780;2024-03-07T10:28:37;30.30;;;12.48;;
572;SDS011;271;51.114;13.780;2024-03-07T10:31:29;25.52;;;11.73;;
572;SDS011;271;51.114;13.780;2024-03-07T10:34:18;25.90;;;12.32;;
572;SDS011;271;51.114;13.780;2024-03-07T10:37:07;29.17;;;12.70;;
572;SDS011;271;51.114;13.780;2024-03-07T10:39:56;27.52;;;12.63;;
572;SDS011;271;51.114;13.780;2024-03-07T10:42:44;27.90;;;13.02;;
572;SDS011;271;51.114;13.780;2024-03-07T10:45:39;27.90;;;13.25;;
572;SDS011;271;51.114;13.780;2024-03-07T10:48:43;27.73;;;12.52;;
572;SDS011;271;51.114;13.780;2024-03-07T10:51:37;26.42;;;12.15;;
572;SDS011;271;51.114;13.780;2024-03-07T10:54:34;28.52;;;13.57;;
572;SDS011;271;51.114;13.780;2024-03-07T11:00:39;28.25;;;12.77;;
572;SDS011;271;51.114;13.780;2024-03-07T11:03:31;27.90;;;12.50;;
572;SDS011;271;51.114;13.780;2024-03-07T11:06:22;28.83;;;12.63;;
572;SDS011;271;51.114;13.780;2024-03-07T11:09:10;27.08;;;12.10;;
572;SDS011;271;51.114;13.780;2024-03-07T11:11:59;27.38;;;12.05;;
572;SDS011;271;51.114;13.780;2024-03-07T11:14:49;30.17;;;12.38;;
572;SDS011;271;51.114;13.780;2024-03-07T11:17:38;32.58;;;13.52;;
572;SDS011;271;51.114;13.780;2024-03-07T11:20:26;29.30;;;12.18;;
572;SDS011;271;51.114;13.780;2024-03-07T11:26:33;26.40;;;11.98;;
572;SDS011;271;51.114;13.780;2024-03-07T11:32:38;28.90;;;12.38;;
572;SDS011;271;51.114;13.780;2024-03-07T11:35:33;31.55;;;14.85;;
572;SDS011;271;51.114;13.780;2024-03-07T11:38:21;31.27;;;13.98;;
572;SDS011;271;51.114;13.780;2024-03-07T11:41:21;28.08;;;12.82;;
572;SDS011;271;51.114;13.780;2024-03-07T11:44:09;28.20;;;13.55;;
572;SDS011;271;51.114;13.780;2024-03-07T11:46:59;28.48;;;12.13;;
572;SDS011;271;51.114;13.780;2024-03-07T11:50:02;30.05;;;13.13;;
572;SDS011;271;51.114;13.780;2024-03-07T11:52:54;33.03;;;14.05;;
572;SDS011;271;51.114;13.780;2024-03-07T11:55:42;30.60;;;14.10;;
572;SDS011;271;51.114;13.780;2024-03-07T11:58:37;33.30;;;14.55;;
572;SDS011;271;51.114;13.780;2024-03-07T12:01:26;31.50;;;13.95;;
572;SDS011;271;51.114;13.780;2024-03-07T12:04:16;27.65;;;12.18;;
572;SDS011;271;51.114;13.780;2024-03-07T12:07:04;30.63;;;14.50;;
572;SDS011;271;51.114;13.780;2024-03-07T12:09:52;27.45;;;12.02;;
572;SDS011;271;51.114;13.780;2024-03-07T12:12:41;29.58;;;13.60;;
572;SDS011;271;51.114;13.780;2024-03-07T12:15:31;30.65;;;11.52;;
572;SDS011;271;51.114;13.780;2024-03-07T12:18:20;27.80;;;11.80;;
572;SDS011;271;51.114;13.780;2024-03-07T12:21:09;26.05;;;11.82;;
572;SDS011;271;51.114;13.780;2024-03-07T12:23:58;25.77;;;11.60;;
572;SDS011;271;51.114;13.780;2024-03-07T12:26:46;27.45;;;11.77;;
572;SDS011;271;51.114;13.780;2024-03-07T12:29:33;28.48;;;12.05;;
572;SDS011;271;51.114;13.780;2024-03-07T12:32:25;27.05;;;12.13;;
572;SDS011;271;51.114;13.780;2024-03-07T12:35:13;28.33;;;11.38;;
572;SDS011;271;51.114;13.780;2024-03-07T12:38:01;27.08;;;11.93;;
572;SDS011;271;51.114;13.780;2024-03-07T12:41:01;27.45;;;11.30;;
572;SDS011;271;51.114;13.780;2024-03-07T12:43:52;28.58;;;12.05;;
572;SDS011;271;51.114;13.780;2024-03-07T12:46:40;26.10;;;12.77;;
572;SDS011;271;51.114;13.780;2024-03-07T12:49:30;28.48;;;12.07;;
572;SDS011;271;51.114;13.780;2024-03-07T12:52:18;25.40;;;10.40;;
572;SDS011;271;51.114;13.780;2024-03-07T12:55:06;26.00;;;10.63;;
572;SDS011;271;51.114;13.780;2024-03-07T12:57:54;29.02;;;12.48;;
572;SDS011;271;51.114;13.780;2024-03-07T13:00:42;26.65;;;11.82;;
572;SDS011;271;51.114;13.780;2024-03-07T13:03:30;26.00;;;11.75;;
572;SDS011;271;51.114;13.780;2024-03-07T13:06:19;26.00;;;11.13;;
572;SDS011;271;51.114;13.780;2024-03-07T13:09:15;25.15;;;11.82;;
572;SDS011;271;51.114;13.780;2024-03-07T13:12:16;26.60;;;11.10;;
572;SDS011;271;51.114;13.780;2024-03-07T13:15:09;24.90;;;10.88;;
572;SDS011;271;51.114;13.780;2024-03-07T13:17:57;26.45;;;11.80;;
572;SDS011;271;51.114;13.780;2024-03-07T13:20:48;23.95;;;10.10;;
572;SDS011;271;51.114;13.780;2024-03-07T13:23:37;26.35;;;13.38;;
572;SDS011;271;51.114;13.780;2024-03-07T13:26:26;25.95;;;10.77;;
572;SDS011;271;51.114;13.780;2024-03-07T13:29:16;28.23;;;11.95;;
572;SDS011;271;51.114;13.780;2024-03-07T13:32:09;26.17;;;11.40;;
572;SDS011;271;51.114;13.780;2024-03-07T13:35:00;27.52;;;10.65;;
572;SDS011;271;51.114;13.780;2024-03-07T13:37:48;28.85;;;11.88;;
572;SDS011;271;51.114;13.780;2024-03-07T13:40:39;29.65;;;11.65;;
572;SDS011;271;51.114;13.780;2024-03-07T13:43:27;25.67;;;10.88;;
572;SDS011;271;51.114;13.780;2024-03-07T13:46:15;25.58;;;10.98;;
572;SDS011;271;51.114;13.780;2024-03-07T13:49:03;26.75;;;11.90;;
572;SDS011;271;51.114;13.780;2024-03-07T13:51:58;25.10;;;10.35;;
572;SDS011;271;51.114;13.780;2024-03-07T13:55:04;26.40;;;10.98;;
572;SDS011;271;51.114;13.780;2024-03-07T13:58:02;27.05;;;12.45;;
572;SDS011;271;51.114;13.780;2024-03-07T14:00:57;25.52;;;10.50;;
572;SDS011;271;51.114;13.780;2024-03-07T14:07:38;24.00;;;11.25;;
572;SDS011;271;51.114;13.780;2024-03-07T14:10:57;28.27;;;11.60;;
572;SDS011;271;51.114;13.780;2024-03-07T14:14:06;24.52;;;10.75;;
572;SDS011;271;51.114;13.780;2024-03-07T14:20:59;29.27;;;11.70;;
572;SDS011;271;51.114;13.780;2024-03-07T14:24:35;25.90;;;11.25;;
572;SDS011;271;51.114;13.780;2024-03-07T14:31:17;27.33;;;11.77;;
572;SDS011;271;51.114;13.780;2024-03-07T14:34:09;26.83;;;11.00;;
572;SDS011;271;51.114;13.780;2024-03-07T14:37:03;25.88;;;11.40;;
572;SDS011;271;51.114;13.780;2024-03-07T14:40:12;29.48;;;12.38;;
572;SDS011;271;51.114;13.780;2024-03-07T14:43:04;24.52;;;10.65;;
572;SDS011;271;51.114;13.780;2024-03-07T14:45:53;26.17;;;11.10;;
572;SDS011;271;51.114;13.780;2024-03-07T14:48:43;24.08;;;10.52;;
572;SDS011;271;51.114;13.780;2024-03-07T14:51:31;27.38;;;11.85;;
572;SDS011;271;51.114;13.780;2024-03-07T14:54:19;24.75;;;10.45;;
572;SDS011;271;51.114;13.780;2024-03-07T14:57:07;26.27;;;11.80;;
572;SDS011;271;51.114;13.780;2024-03-07T14:59:56;26.83;;;11.25;;
572;SDS011;271;51.114;13.780;2024-03-07T15:02:45;25.20;;;10.05;;
572;SDS011;271;51.114;13.780;2024-03-07T15:05:38;27.13;;;12.02;;
572;SDS011;271;51.114;13.780;2024-03-07T15:08:26;27.60;;;11.50;;
572;SDS011;271;51.114;13.780;2024-03-07T15:11:14;28.25;;;12.15;;
572;SDS011;271;51.114;13.780;2024-03-07T15:14:09;26.35;;;12.27;;
572;SDS011;271;51.114;13.780;2024-03-07T15:16:57;27.92;;;11.82;;
572;SDS011;271;51.114;13.780;2024-03-07T15:19:45;25.67;;;11.23;;
572;SDS011;271;51.114;13.780;2024-03-07T15:22:34;27.30;;;11.82;;
572;SDS011;271;51.114;13.780;2024-03-07T15:25:22;25.90;;;11.05;;
572;SDS011;271;51.114;13.780;2024-03-07T15:28:10;28.42;;;11.82;;
572;SDS011;271;51.114;13.780;2024-03-07T15:30:58;24.48;;;11.30;;
572;SDS011;271;51.114;13.780;2024-03-07T15:33:52;26.83;;;12.85;;
572;SDS011;271;51.114;13.780;2024-03-07T15:36:40;27.23;;;11.40;;
572;SDS011;271;51.114;13.780;2024-03-07T15:39:29;24.38;;;11.23;;
572;SDS011;271;51.114;13.780;2024-03-07T15:42:17;26.38;;;12.52;;
572;SDS011;271;51.114;13.780;2024-03-07T15:45:05;28.30;;;12.35;;
572;SDS011;271;51.114;13.780;2024-03-07T15:47:57;26.42;;;12.13;;
572;SDS011;271;51.114;13.780;2024-03-07T15:50:47;28.23;;;12.02;;
572;SDS011;271;51.114;13.780;2024-03-07T15:53:34;27.33;;;12.35;;
572;SDS011;271;51.114;13.780;2024-03-07T15:56:23;29.77;;;12.55;;
572;SDS011;271;51.114;13.780;2024-03-07T15:59:11;27.88;;;11.70;;
572;SDS011;271;51.114;13.780;2024-03-07T16:01:59;27.77;;;12.45;;
572;SDS011;271;51.114;13.780;2024-03-07T16:04:47;26.70;;;11.52;;
572;SDS011;271;51.114;13.780;2024-03-07T16:07:34;26.27;;;12.13;;
572;SDS011;271;51.114;13.780;2024-03-07T16:10:22;27.35;;;12.70;;
572;SDS011;271;51.114;13.780;2024-03-07T16:13:13;27.88;;;12.85;;
572;SDS011;271;51.114;13.780;2024-03-07T16:16:01;28.05;;;12.73;;
572;SDS011;271;51.114;13.780;2024-03-07T16:18:50;27.40;;;12.85;;
572;SDS011;271;51.114;13.780;2024-03-07T16:21:38;28.38;;;12.57;;
572;SDS011;271;51.114;13.780;2024-03-07T16:24:30;27.92;;;12.93;;
572;SDS011;271;51.114;13.780;2024-03-07T16:27:22;29.02;;;14.10;;
572;SDS011;271;51.114;13.780;2024-03-07T16:30:11;29.27;;;13.20;;
572;SDS011;271;51.114;13.780;2024-03-07T16:33:00;27.27;;;13.30;;
572;SDS011;271;51.114;13.780;2024-03-07T16:35:48;29.10;;;14.02;;
572;SDS011;271;51.114;13.780;2024-03-07T16:38:36;28.33;;;13.23;;
572;SDS011;271;51.114;13.780;2024-03-07T16:41:23;31.60;;;13.80;;
572;SDS011;271;51.114;13.780;2024-03-07T16:44:11;28.48;;;12.88;;
572;SDS011;271;51.114;13.780;2024-03-07T16:47:01;30.10;;;12.43;;
572;SDS011;271;51.114;13.780;2024-03-07T16:49:49;27.73;;;12.25;;
572;SDS011;271;51.114;13.780;2024-03-07T16:52:37;30.38;;;13.45;;
572;SDS011;271;51.114;13.780;2024-03-07T16:55:25;29.23;;;13.10;;
572;SDS011;271;51.114;13.780;2024-03-07T16:58:13;31.40;;;13.55;;
572;SDS011;271;51.114;13.780;2024-03-07T17:01:02;29.50;;;13.55;;
572;SDS011;271;51.114;13.780;2024-03-07T17:03:51;28.45;;;12.73;;
572;SDS011;271;51.114;13.780;2024-03-07T17:06:39;31.85;;;14.30;;
572;SDS011;271;51.114;13.780;2024-03-07T17:09:27;29.02;;;14.00;;
572;SDS011;271;51.114;13.780;2024-03-07T17:12:15;29.83;;;14.48;;
572;SDS011;271;51.114;13.780;2024-03-07T17:15:03;31.45;;;13.88;;
572;SDS011;271;51.114;13.780;2024-03-07T17:17:52;29.92;;;14.50;;
572;SDS011;271;51.114;13.780;2024-03-07T17:20:42;28.80;;;13.85;;
572;SDS011;271;51.114;13.780;2024-03-07T17:23:30;30.08;;;14.45;;
572;SDS011;271;51.114;13.780;2024-03-07T17:26:18;29.88;;;13.75;;
572;SDS011;271;51.114;13.780;2024-03-07T17:29:06;29.63;;;13.80;;
572;SDS011;271;51.114;13.780;2024-03-07T17:31:54;27.60;;;13.52;;
572;SDS011;271;51.114;13.780;2024-03-07T17:34:42;30.88;;;14.85;;
572;SDS011;271;51.114;13.780;2024-03-07T17:37:31;34.80;;;17.45;;